Weather at Norwood Airport [CLOSED]

Public forecast

Using degrees Celsius for public forecast. Weather courtesy of forecast.io.

Closest aviation weather report (METAR) to Norwood Airport

Closest report is Peterborough Municipal Airport, 17.6 nm (32.6 km) WSW.

2024/02/24 02:00 (retrieved 16 minutes ago)

CYPQ 240200Z AUTO 01013G18KT 9SM OVC130 M04/M11 A2968 RMK SLP062

Closest aviation forecast (TAF) to Norwood Airport

Forecast is more than 6 hours old.

Closest forecast is Peterborough Municipal Airport, 17.6 nm (32.6 km) WSW.

2024/02/23 20:00 (retrieved 6 hours ago)

TAF CYPQ 231941Z 2320/2403 30012G22KT P6SM SCT030 TEMPO 2320/2321 BKN030 FM232100 31012G22KT P6SM SCT030 BKN060 TEMPO 2321/2324 BKN030 BKN060 FM240000 33012G22KT P6SM FEW050 BKN110 RMK FCST BASED ON AUTO OBS NXT FCST BY 241100Z